Weather History for Rolla, ND

Change the Weather History Date:

Monday, February 18, 2013

  Actual Average (KRUG) Record (KRUG)
Temperature  
Mean Temperature 2 °F -  
Max Temperature 15 °F 22 °F 44 °F (1954)
Min Temperature -11 °F 3 °F -28 °F (1966)
Degree Days  
Heating Degree Days 63    
Moisture  
Dew Point -1 °F    
Average Humidity 87    
Maximum Humidity 100    
Minimum Humidity 70    
Precipitation  
Precipitation 9.20 in - - ()
Sea Level Pressure  
Sea Level Pressure 29.95 in    
Wind  
Wind Speed 30 mph (NNW)    
Max Wind Speed 39 mph    
Max Gust Speed 47 mph    
Visibility 3 miles    
Events Rain , Snow    
Averages and records for this station are not official NWS values.
T = Trace of Precipitation, MM = Missing Value Source: NWS Daily Summary

Daily Weather History Graph

Daily Weather History Graph

Search for Another Location

Airport:

Trip Planner

Search our weather history database for the weather conditions in past years. The results will help you decide how hot, cold, wet, or windy it might be!

Date:

Astronomy

Feb. 18, 2013 Rise Set
Actual Time 7:40 AM CST 6:04 PM CST
Civil Twilight 7:08 AM CST 6:37 PM CST
Nautical Twilight 6:31 AM CST 7:13 PM CST
Astronomical Twilight 5:55 AM CST 7:50 PM CST
Moon 11:36 AM CST (2/18) 2:36 AM CST (2/18)
Length of Visible Light 11h 28m
Length of Day
10h 24m
First Quarter, 58% of the Moon is Illuminated
Feb 18
First Quarter
Feb 25
Full
Mar 4
Last Quarter
Mar 11
New
Mar 19
First Quarter

Hourly Weather History & Observations

Time (CST) Temp. Windchill Dew Point Humidity Pressure Visibility Wind Dir Wind Speed Gust Speed Precip Events Conditions
12:15 AM 15.8 °F -4.1 °F 15.8 °F 100% 29.60 in 0.5 mi North 28.8 mph 34.5 mph 0.39 in Snow Snow
12:55 AM 15.8 °F -4.1 °F 15.8 °F 100% 29.62 in 0.5 mi North 28.8 mph 33.4 mph 1.51 in Snow Snow
1:15 AM 15.8 °F -5.0 °F 15.8 °F 100% 29.63 in 0.8 mi North 32.2 mph 35.7 mph 0.14 in Snow Light Snow
1:35 AM 15.8 °F -5.0 °F 15.8 °F 100% 29.64 in 0.5 mi North 32.2 mph 36.8 mph 0.51 in Snow Snow
1:55 AM 14.0 °F -6.2 °F 14.0 °F 100% 29.66 in 0.5 mi North 27.6 mph 41.4 mph 0.94 in Snow Snow
2:15 AM 12.2 °F -11.3 °F 10.4 °F 92% 29.67 in 0.2 mi North 38.0 mph 43.7 mph 0.36 in Snow Heavy Snow
2:35 AM 10.4 °F -13.2 °F 10.4 °F 100% 29.69 in 0.2 mi North 35.7 mph 43.7 mph 0.87 in Snow Heavy Snow
2:55 AM 10.4 °F -13.8 °F 8.6 °F 92% 29.71 in 0.2 mi North 38.0 mph 43.7 mph 1.71 in Snow Heavy Snow
3:15 AM 8.6 °F -16.0 °F 8.6 °F 100% 29.72 in 0.2 mi North 36.8 mph 47.2 mph 0.34 in Snow Heavy Snow
3:35 AM 8.6 °F -14.8 °F 6.8 °F 92% 29.73 in 0.2 mi North 32.2 mph 43.7 mph 0.83 in Snow Heavy Snow
3:55 AM 8.6 °F -15.1 °F 6.8 °F 92% 29.74 in 0.2 mi North 33.4 mph 42.6 mph 1.34 in Snow Heavy Snow
4:15 AM 6.8 °F -19.1 °F 6.8 °F 100% 29.75 in 0.2 mi North 39.1 mph 44.9 mph 0.17 in Snow Heavy Snow
4:35 AM 6.8 °F -15.9 °F 5.0 °F 92% 29.77 in - North 27.6 mph 35.7 mph 0.73 in Snow Heavy Snow
4:55 AM 6.8 °F -15.9 °F 5.0 °F 92% 29.78 in - North 27.6 mph 34.5 mph 1.02 in Snow Heavy Snow
5:15 AM 6.8 °F -16.2 °F 5.0 °F 92% 29.79 in - North 28.8 mph - 0.12 in Snow Heavy Snow
5:35 AM 6.8 °F -15.5 °F 3.2 °F 85% 29.81 in - North 26.5 mph 35.7 mph 0.28 in Snow Heavy Snow
5:55 AM 6.8 °F -16.6 °F 5.0 °F 92% 29.82 in 0.8 mi North 29.9 mph 39.1 mph 0.38 in Snow Light Snow
6:15 AM 5.0 °F -20.4 °F 1.4 °F 85% 29.83 in 0.8 mi North 34.5 mph 38.0 mph 0.14 in Snow Light Snow
6:35 AM 5.0 °F -19.7 °F 1.4 °F 85% 29.84 in 0.8 mi North 32.2 mph 38.0 mph 0.45 in Rain Light Freezing Rain
6:55 AM 5.0 °F -19.0 °F 1.4 °F 85% 29.85 in 1.2 mi NNW 29.9 mph 33.4 mph 0.68 in Rain Light Freezing Rain
7:15 AM 5.0 °F -18.3 °F 1.4 °F 85% 29.86 in 1.8 mi NNW 27.6 mph 33.4 mph 0.06 in Rain Light Freezing Rain
7:35 AM 5.0 °F -17.5 °F 1.4 °F 85% 29.87 in 1.0 mi NNW 25.3 mph 39.1 mph 0.16 in Rain Light Freezing Rain
7:55 AM 5.0 °F -18.3 °F 1.4 °F 85% 29.88 in 0.8 mi NNW 27.6 mph 36.8 mph 0.24 in Rain Light Freezing Rain
8:15 AM 3.2 °F -21.5 °F 1.4 °F 92% 29.88 in 0.5 mi NNW 29.9 mph 36.8 mph 0.05 in Rain Light Freezing Rain
8:35 AM 3.2 °F -22.5 °F -0.4 °F 85% 29.89 in 0.8 mi NNW 33.4 mph 38.0 mph 0.11 in Rain Light Freezing Rain
8:55 AM 3.2 °F -21.5 °F -0.4 °F 85% 29.89 in 0.5 mi NNW 29.9 mph 36.8 mph 0.18 in Rain Light Freezing Rain
9:15 AM 3.2 °F -22.2 °F -0.4 °F 85% 29.90 in 0.5 mi NNW 32.2 mph 38.0 mph 0.08 in Rain Light Freezing Rain
9:35 AM 3.2 °F -21.8 °F -0.4 °F 85% 29.91 in 0.5 mi North 31.1 mph 38.0 mph 0.14 in Rain Light Freezing Rain
9:55 AM 3.2 °F -22.9 °F -0.4 °F 85% 29.91 in 0.2 mi NNW 34.5 mph 40.3 mph 0.24 in Rain Light Freezing Rain
10:15 AM 3.2 °F -23.5 °F -0.4 °F 85% 29.92 in 0.5 mi NNW 36.8 mph 41.4 mph 0.07 in Rain Light Freezing Rain
10:35 AM 1.4 °F -25.3 °F -0.4 °F 92% 29.92 in 0.2 mi NNW 34.5 mph 40.3 mph 0.15 in Rain Light Freezing Rain
10:55 AM 1.4 °F -25.3 °F -0.4 °F 92% 29.93 in 0.5 mi NNW 34.5 mph 40.3 mph 0.21 in Snow Snow
11:15 AM 1.4 °F -25.0 °F -2.2 °F 85% 29.94 in 0.5 mi NNW 33.4 mph 40.3 mph 0.03 in Snow Snow
11:35 AM 1.4 °F -24.3 °F -2.2 °F 85% 29.95 in 0.5 mi NNW 31.1 mph 40.3 mph 0.06 in Snow Snow
11:55 AM 1.4 °F -26.0 °F -2.2 °F 85% 29.95 in 0.5 mi NNW 36.8 mph 41.4 mph 0.14 in Rain Light Freezing Rain
12:15 PM 1.4 °F -24.6 °F -2.2 °F 85% 29.96 in 0.5 mi NNW 32.2 mph 39.1 mph 0.04 in Rain Light Freezing Rain
12:35 PM 1.4 °F -25.0 °F -2.2 °F 85% 29.97 in 0.5 mi NNW 33.4 mph 42.6 mph 0.10 in Rain Light Freezing Rain
12:55 PM 1.4 °F -25.3 °F -0.4 °F 92% 29.97 in 0.2 mi North 34.5 mph 40.3 mph 0.17 in Rain Light Freezing Rain
1:15 PM 1.4 °F -24.3 °F -2.2 °F 85% 29.98 in 0.2 mi North 31.1 mph 38.0 mph 0.05 in Rain Light Freezing Rain
1:35 PM 1.4 °F -25.3 °F -2.2 °F 85% 29.98 in 0.5 mi NNW 34.5 mph 41.4 mph 0.09 in Rain Light Freezing Rain
1:55 PM 1.4 °F -26.0 °F -2.2 °F 85% 29.98 in 0.5 mi NNW 36.8 mph 41.4 mph 0.14 in Rain Light Freezing Rain
2:15 PM 1.4 °F -24.3 °F -2.2 °F 85% 29.99 in 0.5 mi NNW 31.1 mph 39.1 mph 0.05 in Rain Light Freezing Rain
2:35 PM 1.4 °F -23.9 °F -0.4 °F 92% 30.00 in 0.5 mi North 29.9 mph 41.4 mph 0.10 in Rain Light Freezing Rain
2:55 PM 1.4 °F -23.9 °F -0.4 °F 92% 30.01 in 0.8 mi NNW 29.9 mph 36.8 mph 0.13 in Snow Light Snow
3:15 PM 1.4 °F -23.9 °F -2.2 °F 85% 30.02 in 0.5 mi NNW 29.9 mph 34.5 mph 0.04 in Rain Light Freezing Rain
3:35 PM 1.4 °F -24.3 °F -0.4 °F 92% 30.03 in 1.0 mi NNW 31.1 mph 35.7 mph 0.06 in Snow Light Snow
3:55 PM 1.4 °F -24.3 °F -0.4 °F 92% 30.03 in 0.5 mi NNW 31.1 mph 34.5 mph 0.08 in Snow Snow
4:15 PM 1.4 °F -23.2 °F -0.4 °F 92% 30.04 in 0.8 mi NNW 27.6 mph 33.4 mph 0.01 in Snow Light Snow
4:35 PM 1.4 °F -24.6 °F -0.4 °F 92% 30.05 in 0.5 mi North 32.2 mph 38.0 mph 0.03 in Snow Snow
4:55 PM 1.4 °F -24.3 °F -0.4 °F 92% 30.07 in 0.8 mi North 31.1 mph 34.5 mph 0.07 in Rain Light Freezing Rain
5:15 PM 1.4 °F -23.9 °F -0.4 °F 92% 30.08 in 1.0 mi NNW 29.9 mph 33.4 mph 0.01 in Rain Light Freezing Rain
5:35 PM -0.4 °F -25.2 °F -2.2 °F 92% 30.09 in 1.8 mi NNW 26.5 mph 31.1 mph 0.02 in Rain Light Freezing Rain
5:55 PM -0.4 °F -25.6 °F -4.0 °F 85% 30.10 in 2.0 mi NNW 27.6 mph 32.2 mph 0.02 in Rain Light Freezing Rain
6:15 PM -0.4 °F -24.3 °F -4.0 °F 85% 30.10 in 3.0 mi NNW 24.2 mph 29.9 mph N/A Snow Light Snow
6:35 PM -2.2 °F -26.7 °F -7.6 °F 78% 30.11 in 5.0 mi NNW 24.2 mph - N/A   Haze
6:55 PM -2.2 °F -26.2 °F -7.6 °F 78% 30.12 in 7.0 mi North 23.0 mph - N/A   Partly Cloudy
7:15 PM -4.0 °F -27.0 °F -7.6 °F 85% 30.14 in 10.0 mi North 19.6 mph - N/A   Scattered Clouds
7:35 PM -4.0 °F -27.0 °F -9.4 °F 78% 30.14 in 10.0 mi North 19.6 mph - N/A   Mostly Cloudy
7:55 PM -4.0 °F -26.4 °F -9.4 °F 78% 30.15 in 10.0 mi North 18.4 mph - N/A   Partly Cloudy
8:15 PM -5.8 °F -28.2 °F -11.2 °F 77% 30.16 in 10.0 mi North 17.3 mph - N/A   Partly Cloudy
8:35 PM -7.6 °F -31.1 °F -11.2 °F 84% 30.16 in 10.0 mi NNW 18.4 mph - N/A   Scattered Clouds
8:55 PM -7.6 °F -31.7 °F -11.2 °F 84% 30.17 in 10.0 mi North 19.6 mph - N/A   Partly Cloudy
9:15 PM -7.6 °F -32.9 °F -13.0 °F 77% 30.17 in 10.0 mi NNW 21.9 mph - N/A   Clear
9:35 PM -9.4 °F -35.2 °F -13.0 °F 84% 30.18 in 10.0 mi NNW 21.9 mph - N/A   Clear
9:55 PM -9.4 °F -35.8 °F -13.0 °F 84% 30.18 in 5.0 mi North 23.0 mph - N/A   Haze
10:15 PM -9.4 °F -35.2 °F -14.8 °F 77% 30.19 in 9.0 mi North 21.9 mph - N/A   Clear
10:35 PM -9.4 °F -36.3 °F -14.8 °F 77% 30.19 in 5.0 mi North 24.2 mph - N/A   Haze
10:55 PM -9.4 °F -35.2 °F -16.6 °F 71% 30.21 in 9.0 mi North 21.9 mph - N/A   Clear
11:15 PM -11.2 °F -38.2 °F -16.6 °F 77% 30.21 in 9.0 mi North 23.0 mph - N/A   Clear
11:35 PM -11.2 °F -37.6 °F -18.4 °F 70% 30.22 in 9.0 mi NNW 21.9 mph - N/A   Clear
11:55 PM -11.2 °F -37.6 °F -18.4 °F 70% 30.23 in 10.0 mi NNW 21.9 mph - N/A   Clear